sensor_id;sensor_type;location;lat;lon;timestamp;temperature;humidity
17178;DHT22;8704;52.006;4.374;2023-12-20T00:01:32;8.00;1.00
17178;DHT22;8704;52.006;4.374;2023-12-20T00:04:00;7.80;1.00
17178;DHT22;8704;52.006;4.374;2023-12-20T00:06:29;8.10;1.00
17178;DHT22;8704;52.006;4.374;2023-12-20T00:08:57;7.90;1.00
17178;DHT22;8704;52.006;4.374;2023-12-20T00:11:25;7.90;1.00
17178;DHT22;8704;52.006;4.374;2023-12-20T00:13:53;7.90;1.00
17178;DHT22;8704;52.006;4.374;2023-12-20T00:16:21;7.90;1.00
17178;DHT22;8704;52.006;4.374;2023-12-20T00:18:51;7.90;1.00
17178;DHT22;8704;52.006;4.374;2023-12-20T00:21:19;8.00;1.00
17178;DHT22;8704;52.006;4.374;2023-12-20T00:23:47;8.00;1.00
17178;DHT22;8704;52.006;4.374;2023-12-20T00:26:15;7.90;1.00
17178;DHT22;8704;52.006;4.374;2023-12-20T00:28:43;7.90;1.00
17178;DHT22;8704;52.006;4.374;2023-12-20T00:31:12;8.00;1.00
17178;DHT22;8704;52.006;4.374;2023-12-20T00:33:40;7.90;1.00
17178;DHT22;8704;52.006;4.374;2023-12-20T00:36:12;7.90;1.00
17178;DHT22;8704;52.006;4.374;2023-12-20T00:38:40;7.90;1.00
17178;DHT22;8704;52.006;4.374;2023-12-20T00:41:08;8.00;1.00
17178;DHT22;8704;52.006;4.374;2023-12-20T00:43:36;7.90;1.00
17178;DHT22;8704;52.006;4.374;2023-12-20T00:46:04;8.00;1.00
17178;DHT22;8704;52.006;4.374;2023-12-20T00:48:33;8.00;1.00
17178;DHT22;8704;52.006;4.374;2023-12-20T00:51:04;8.00;1.00
17178;DHT22;8704;52.006;4.374;2023-12-20T00:53:33;8.00;1.00
17178;DHT22;8704;52.006;4.374;2023-12-20T00:56:02;8.00;1.00
17178;DHT22;8704;52.006;4.374;2023-12-20T00:58:30;8.00;1.00
17178;DHT22;8704;52.006;4.374;2023-12-20T01:00:58;8.00;1.00
17178;DHT22;8704;52.006;4.374;2023-12-20T01:03:26;8.00;1.00
17178;DHT22;8704;52.006;4.374;2023-12-20T01:05:54;8.00;1.00
17178;DHT22;8704;52.006;4.374;2023-12-20T01:08:23;8.00;1.00
17178;DHT22;8704;52.006;4.374;2023-12-20T01:10:52;8.00;1.00
17178;DHT22;8704;52.006;4.374;2023-12-20T01:13:20;8.10;1.00
17178;DHT22;8704;52.006;4.374;2023-12-20T01:15:49;8.10;1.00
17178;DHT22;8704;52.006;4.374;2023-12-20T01:18:17;8.10;1.00
17178;DHT22;8704;52.006;4.374;2023-12-20T01:20:45;8.10;1.00
17178;DHT22;8704;52.006;4.374;2023-12-20T01:23:13;8.10;1.00
17178;DHT22;8704;52.006;4.374;2023-12-20T01:25:41;8.10;1.00
17178;DHT22;8704;52.006;4.374;2023-12-20T01:28:11;8.10;1.00
17178;DHT22;8704;52.006;4.374;2023-12-20T01:30:40;8.10;1.00
17178;DHT22;8704;52.006;4.374;2023-12-20T01:33:08;8.10;99.90
17178;DHT22;8704;52.006;4.374;2023-12-20T01:35:36;8.30;99.90
17178;DHT22;8704;52.006;4.374;2023-12-20T01:38:04;8.10;99.90
17178;DHT22;8704;52.006;4.374;2023-12-20T01:40:32;8.50;99.90
17178;DHT22;8704;52.006;4.374;2023-12-20T01:43:01;8.20;99.90
17178;DHT22;8704;52.006;4.374;2023-12-20T01:45:31;8.20;99.90
17178;DHT22;8704;52.006;4.374;2023-12-20T01:48:00;8.20;99.90
17178;DHT22;8704;52.006;4.374;2023-12-20T01:50:30;8.20;99.90
17178;DHT22;8704;52.006;4.374;2023-12-20T01:53:00;8.20;99.90
17178;DHT22;8704;52.006;4.374;2023-12-20T01:55:32;8.20;99.90
17178;DHT22;8704;52.006;4.374;2023-12-20T01:58:01;8.20;99.90
17178;DHT22;8704;52.006;4.374;2023-12-20T02:00:31;8.30;99.90
17178;DHT22;8704;52.006;4.374;2023-12-20T02:03:01;8.20;99.90
17178;DHT22;8704;52.006;4.374;2023-12-20T02:05:30;8.30;99.90
17178;DHT22;8704;52.006;4.374;2023-12-20T02:07:59;8.30;99.90
17178;DHT22;8704;52.006;4.374;2023-12-20T02:10:27;8.10;99.90
17178;DHT22;8704;52.006;4.374;2023-12-20T02:12:56;8.10;99.90
17178;DHT22;8704;52.006;4.374;2023-12-20T02:15:24;8.30;99.90
17178;DHT22;8704;52.006;4.374;2023-12-20T02:17:54;8.20;99.90
17178;DHT22;8704;52.006;4.374;2023-12-20T02:20:23;8.20;99.90
17178;DHT22;8704;52.006;4.374;2023-12-20T02:22:52;8.40;99.90
17178;DHT22;8704;52.006;4.374;2023-12-20T02:25:20;8.10;99.90
17178;DHT22;8704;52.006;4.374;2023-12-20T02:27:49;8.10;99.90
17178;DHT22;8704;52.006;4.374;2023-12-20T02:30:19;8.10;99.90
17178;DHT22;8704;52.006;4.374;2023-12-20T02:32:48;8.00;99.90
17178;DHT22;8704;52.006;4.374;2023-12-20T02:35:17;8.10;99.90
17178;DHT22;8704;52.006;4.374;2023-12-20T02:37:45;8.10;99.90
17178;DHT22;8704;52.006;4.374;2023-12-20T02:40:15;8.10;99.90
17178;DHT22;8704;52.006;4.374;2023-12-20T02:42:43;8.10;99.90
17178;DHT22;8704;52.006;4.374;2023-12-20T02:45:11;8.10;99.90
17178;DHT22;8704;52.006;4.374;2023-12-20T02:47:41;8.40;99.90
17178;DHT22;8704;52.006;4.374;2023-12-20T02:50:10;8.10;99.90
17178;DHT22;8704;52.006;4.374;2023-12-20T02:52:38;8.10;99.90
17178;DHT22;8704;52.006;4.374;2023-12-20T02:55:06;8.10;99.90
17178;DHT22;8704;52.006;4.374;2023-12-20T02:57:36;8.10;99.90
17178;DHT22;8704;52.006;4.374;2023-12-20T03:00:10;8.10;99.90
17178;DHT22;8704;52.006;4.374;2023-12-20T03:02:38;8.10;99.90
17178;DHT22;8704;52.006;4.374;2023-12-20T03:05:07;8.10;99.90
17178;DHT22;8704;52.006;4.374;2023-12-20T03:07:36;8.10;99.90
17178;DHT22;8704;52.006;4.374;2023-12-20T03:10:05;8.20;99.90
17178;DHT22;8704;52.006;4.374;2023-12-20T03:12:47;8.10;99.90
17178;DHT22;8704;52.006;4.374;2023-12-20T03:15:16;8.20;99.90
17178;DHT22;8704;52.006;4.374;2023-12-20T03:17:44;8.10;99.90
17178;DHT22;8704;52.006;4.374;2023-12-20T03:20:12;8.10;99.90
17178;DHT22;8704;52.006;4.374;2023-12-20T03:22:41;8.10;99.90
17178;DHT22;8704;52.006;4.374;2023-12-20T03:25:09;8.20;99.90
17178;DHT22;8704;52.006;4.374;2023-12-20T03:27:37;8.10;99.90
17178;DHT22;8704;52.006;4.374;2023-12-20T03:30:09;8.10;99.90
17178;DHT22;8704;52.006;4.374;2023-12-20T03:32:38;8.10;99.90
17178;DHT22;8704;52.006;4.374;2023-12-20T03:35:06;8.10;99.90
17178;DHT22;8704;52.006;4.374;2023-12-20T03:37:34;8.10;99.90
17178;DHT22;8704;52.006;4.374;2023-12-20T03:40:03;8.10;99.90
17178;DHT22;8704;52.006;4.374;2023-12-20T03:42:32;8.10;99.90
17178;DHT22;8704;52.006;4.374;2023-12-20T03:45:00;8.00;99.90
17178;DHT22;8704;52.006;4.374;2023-12-20T03:47:29;8.10;99.90
17178;DHT22;8704;52.006;4.374;2023-12-20T03:49:58;8.00;99.90
17178;DHT22;8704;52.006;4.374;2023-12-20T03:52:26;8.00;99.90
17178;DHT22;8704;52.006;4.374;2023-12-20T03:54:55;8.50;99.90
17178;DHT22;8704;52.006;4.374;2023-12-20T03:57:23;8.00;99.90
17178;DHT22;8704;52.006;4.374;2023-12-20T03:59:51;7.90;99.90
17178;DHT22;8704;52.006;4.374;2023-12-20T04:02:19;7.90;99.90
17178;DHT22;8704;52.006;4.374;2023-12-20T04:04:49;7.90;99.90
17178;DHT22;8704;52.006;4.374;2023-12-20T04:07:17;8.10;99.90
17178;DHT22;8704;52.006;4.374;2023-12-20T04:09:45;7.90;99.90
17178;DHT22;8704;52.006;4.374;2023-12-20T04:12:15;8.10;99.90
17178;DHT22;8704;52.006;4.374;2023-12-20T04:14:43;7.90;99.90
17178;DHT22;8704;52.006;4.374;2023-12-20T04:17:11;8.20;99.90
17178;DHT22;8704;52.006;4.374;2023-12-20T04:19:39;7.90;99.90
17178;DHT22;8704;52.006;4.374;2023-12-20T04:22:10;7.90;99.90
17178;DHT22;8704;52.006;4.374;2023-12-20T04:24:38;7.90;99.90
17178;DHT22;8704;52.006;4.374;2023-12-20T04:27:09;7.90;99.90
17178;DHT22;8704;52.006;4.374;2023-12-20T04:29:37;8.20;99.90
17178;DHT22;8704;52.006;4.374;2023-12-20T04:32:06;7.90;99.90
17178;DHT22;8704;52.006;4.374;2023-12-20T04:34:34;7.80;99.90
17178;DHT22;8704;52.006;4.374;2023-12-20T04:37:02;7.80;99.90
17178;DHT22;8704;52.006;4.374;2023-12-20T04:39:32;7.80;99.90
17178;DHT22;8704;52.006;4.374;2023-12-20T04:42:00;8.10;99.90
17178;DHT22;8704;52.006;4.374;2023-12-20T04:44:28;7.80;99.90
17178;DHT22;8704;52.006;4.374;2023-12-20T04:46:57;7.80;99.90
17178;DHT22;8704;52.006;4.374;2023-12-20T04:49:25;7.80;99.90
17178;DHT22;8704;52.006;4.374;2023-12-20T04:51:53;8.10;99.90
17178;DHT22;8704;52.006;4.374;2023-12-20T04:54:22;7.80;99.90
17178;DHT22;8704;52.006;4.374;2023-12-20T04:56:52;7.80;99.90
17178;DHT22;8704;52.006;4.374;2023-12-20T04:59:20;7.80;99.90
17178;DHT22;8704;52.006;4.374;2023-12-20T05:01:48;7.80;99.90
17178;DHT22;8704;52.006;4.374;2023-12-20T05:04:17;7.80;99.90
17178;DHT22;8704;52.006;4.374;2023-12-20T05:06:45;7.80;99.90
17178;DHT22;8704;52.006;4.374;2023-12-20T05:09:13;8.00;99.90
17178;DHT22;8704;52.006;4.374;2023-12-20T05:11:41;7.80;99.90
17178;DHT22;8704;52.006;4.374;2023-12-20T05:14:11;7.80;99.90
17178;DHT22;8704;52.006;4.374;2023-12-20T05:16:39;7.80;99.90
17178;DHT22;8704;52.006;4.374;2023-12-20T05:19:08;7.80;99.90
17178;DHT22;8704;52.006;4.374;2023-12-20T05:21:36;7.80;1.00
17178;DHT22;8704;52.006;4.374;2023-12-20T05:24:05;7.80;1.00
17178;DHT22;8704;52.006;4.374;2023-12-20T05:26:33;7.70;1.00
17178;DHT22;8704;52.006;4.374;2023-12-20T05:29:01;7.70;1.00
17178;DHT22;8704;52.006;4.374;2023-12-20T05:31:31;7.80;1.00
17178;DHT22;8704;52.006;4.374;2023-12-20T05:33:59;7.80;99.90
17178;DHT22;8704;52.006;4.374;2023-12-20T05:36:28;8.20;1.00
17178;DHT22;8704;52.006;4.374;2023-12-20T05:38:56;7.80;1.00
17178;DHT22;8704;52.006;4.374;2023-12-20T05:41:24;7.80;1.00
17178;DHT22;8704;52.006;4.374;2023-12-20T05:43:52;7.80;1.00
17178;DHT22;8704;52.006;4.374;2023-12-20T05:46:20;8.00;1.00
17178;DHT22;8704;52.006;4.374;2023-12-20T05:48:50;7.80;1.00
17178;DHT22;8704;52.006;4.374;2023-12-20T05:51:19;7.90;99.90
17178;DHT22;8704;52.006;4.374;2023-12-20T05:53:47;7.90;99.90
17178;DHT22;8704;52.006;4.374;2023-12-20T05:56:16;7.90;1.00
17178;DHT22;8704;52.006;4.374;2023-12-20T05:58:44;7.90;1.00
17178;DHT22;8704;52.006;4.374;2023-12-20T06:01:14;7.90;99.90
17178;DHT22;8704;52.006;4.374;2023-12-20T06:03:44;7.90;99.90
17178;DHT22;8704;52.006;4.374;2023-12-20T06:06:14;8.00;99.90
17178;DHT22;8704;52.006;4.374;2023-12-20T06:08:43;7.90;99.90
17178;DHT22;8704;52.006;4.374;2023-12-20T06:11:11;8.00;99.90
17178;DHT22;8704;52.006;4.374;2023-12-20T06:13:40;8.30;99.90
17178;DHT22;8704;52.006;4.374;2023-12-20T06:16:08;8.10;99.90
17178;DHT22;8704;52.006;4.374;2023-12-20T06:18:37;8.10;99.90
17178;DHT22;8704;52.006;4.374;2023-12-20T06:21:05;8.10;99.90
17178;DHT22;8704;52.006;4.374;2023-12-20T06:23:35;8.30;99.90
17178;DHT22;8704;52.006;4.374;2023-12-20T06:26:03;8.10;99.90
17178;DHT22;8704;52.006;4.374;2023-12-20T06:28:32;8.20;99.90
17178;DHT22;8704;52.006;4.374;2023-12-20T06:31:00;8.10;99.90
17178;DHT22;8704;52.006;4.374;2023-12-20T06:33:28;8.20;99.90
17178;DHT22;8704;52.006;4.374;2023-12-20T06:35:57;8.30;1.00
17178;DHT22;8704;52.006;4.374;2023-12-20T06:38:25;8.10;99.90
17178;DHT22;8704;52.006;4.374;2023-12-20T06:40:55;8.10;99.90
17178;DHT22;8704;52.006;4.374;2023-12-20T06:43:24;8.10;99.90
17178;DHT22;8704;52.006;4.374;2023-12-20T06:45:57;8.20;99.90
17178;DHT22;8704;52.006;4.374;2023-12-20T06:48:25;8.10;99.90
17178;DHT22;8704;52.006;4.374;2023-12-20T06:50:53;8.00;99.90
17178;DHT22;8704;52.006;4.374;2023-12-20T06:53:21;8.00;99.90
17178;DHT22;8704;52.006;4.374;2023-12-20T06:55:49;8.00;99.90
17178;DHT22;8704;52.006;4.374;2023-12-20T06:58:19;8.10;99.90
17178;DHT22;8704;52.006;4.374;2023-12-20T07:00:47;8.30;99.90
17178;DHT22;8704;52.006;4.374;2023-12-20T07:03:15;8.00;1.00
17178;DHT22;8704;52.006;4.374;2023-12-20T07:05:44;8.50;1.00
17178;DHT22;8704;52.006;4.374;2023-12-20T07:08:12;9.00;1.00
17178;DHT22;8704;52.006;4.374;2023-12-20T07:10:42;7.90;1.00
17178;DHT22;8704;52.006;4.374;2023-12-20T07:13:10;7.90;1.00
17178;DHT22;8704;52.006;4.374;2023-12-20T07:15:41;7.90;1.00
17178;DHT22;8704;52.006;4.374;2023-12-20T07:18:10;8.90;1.00
17178;DHT22;8704;52.006;4.374;2023-12-20T07:20:39;7.90;1.00
17178;DHT22;8704;52.006;4.374;2023-12-20T07:23:07;7.90;1.00
17178;DHT22;8704;52.006;4.374;2023-12-20T07:25:35;8.00;1.00
17178;DHT22;8704;52.006;4.374;2023-12-20T07:28:04;7.90;1.00
17178;DHT22;8704;52.006;4.374;2023-12-20T07:30:32;7.80;1.00
17178;DHT22;8704;52.006;4.374;2023-12-20T07:33:02;7.90;1.00
17178;DHT22;8704;52.006;4.374;2023-12-20T07:35:30;7.80;1.00
17178;DHT22;8704;52.006;4.374;2023-12-20T07:37:58;7.90;1.00
17178;DHT22;8704;52.006;4.374;2023-12-20T07:40:27;7.70;1.00
17178;DHT22;8704;52.006;4.374;2023-12-20T07:42:55;8.10;1.00
17178;DHT22;8704;52.006;4.374;2023-12-20T07:45:23;7.70;1.00
17178;DHT22;8704;52.006;4.374;2023-12-20T07:47:51;7.70;1.00
17178;DHT22;8704;52.006;4.374;2023-12-20T07:50:22;7.70;28.70
17178;DHT22;8704;52.006;4.374;2023-12-20T07:52:50;7.80;51.80
17178;DHT22;8704;52.006;4.374;2023-12-20T07:55:18;7.80;25.00
17178;DHT22;8704;52.006;4.374;2023-12-20T07:57:46;8.30;1.00
17178;DHT22;8704;52.006;4.374;2023-12-20T08:00:15;7.90;1.00
17178;DHT22;8704;52.006;4.374;2023-12-20T08:02:44;7.90;1.00
17178;DHT22;8704;52.006;4.374;2023-12-20T08:05:12;8.00;1.00
17178;DHT22;8704;52.006;4.374;2023-12-20T08:07:43;8.00;1.00
17178;DHT22;8704;52.006;4.374;2023-12-20T08:10:12;8.10;1.00
17178;DHT22;8704;52.006;4.374;2023-12-20T08:12:41;8.10;1.00
17178;DHT22;8704;52.006;4.374;2023-12-20T08:15:09;8.30;1.00
17178;DHT22;8704;52.006;4.374;2023-12-20T08:17:37;8.10;1.00
17178;DHT22;8704;52.006;4.374;2023-12-20T08:20:07;9.10;1.00
17178;DHT22;8704;52.006;4.374;2023-12-20T08:22:35;8.10;1.00
17178;DHT22;8704;52.006;4.374;2023-12-20T08:25:05;8.50;1.00
17178;DHT22;8704;52.006;4.374;2023-12-20T08:27:33;8.10;1.00
17178;DHT22;8704;52.006;4.374;2023-12-20T08:30:02;8.10;1.00
17178;DHT22;8704;52.006;4.374;2023-12-20T08:32:31;8.20;1.00
17178;DHT22;8704;52.006;4.374;2023-12-20T08:35:00;8.30;1.00
17178;DHT22;8704;52.006;4.374;2023-12-20T08:37:29;8.30;1.00
17178;DHT22;8704;52.006;4.374;2023-12-20T08:39:57;7.80;1.00
17178;DHT22;8704;52.006;4.374;2023-12-20T08:42:27;9.30;1.00
17178;DHT22;8704;52.006;4.374;2023-12-20T08:44:58;8.30;1.00
17178;DHT22;8704;52.006;4.374;2023-12-20T08:47:26;8.40;1.00
17178;DHT22;8704;52.006;4.374;2023-12-20T08:49:54;8.40;1.00
17178;DHT22;8704;52.006;4.374;2023-12-20T08:52:23;9.20;1.00
17178;DHT22;8704;52.006;4.374;2023-12-20T08:54:52;8.40;1.00
17178;DHT22;8704;52.006;4.374;2023-12-20T08:57:20;8.40;1.00
17178;DHT22;8704;52.006;4.374;2023-12-20T08:59:51;8.50;1.00
17178;DHT22;8704;52.006;4.374;2023-12-20T09:02:19;9.00;1.00
17178;DHT22;8704;52.006;4.374;2023-12-20T09:04:47;8.60;1.00
17178;DHT22;8704;52.006;4.374;2023-12-20T09:07:22;8.60;1.00
17178;DHT22;8704;52.006;4.374;2023-12-20T09:09:51;8.70;1.00
17178;DHT22;8704;52.006;4.374;2023-12-20T09:12:20;8.70;1.00
17178;DHT22;8704;52.006;4.374;2023-12-20T09:14:49;8.70;1.00
17178;DHT22;8704;52.006;4.374;2023-12-20T09:17:19;8.70;1.00
17178;DHT22;8704;52.006;4.374;2023-12-20T09:19:47;8.80;1.00
17178;DHT22;8704;52.006;4.374;2023-12-20T09:22:15;9.80;1.00
17178;DHT22;8704;52.006;4.374;2023-12-20T09:24:44;8.80;1.00
17178;DHT22;8704;52.006;4.374;2023-12-20T09:27:12;8.90;1.00
17178;DHT22;8704;52.006;4.374;2023-12-20T09:29:40;8.90;1.00
17178;DHT22;8704;52.006;4.374;2023-12-20T09:32:08;8.90;1.00
17178;DHT22;8704;52.006;4.374;2023-12-20T09:34:38;8.90;1.00
17178;DHT22;8704;52.006;4.374;2023-12-20T09:37:07;9.70;1.00
17178;DHT22;8704;52.006;4.374;2023-12-20T09:39:35;9.00;1.00
17178;DHT22;8704;52.006;4.374;2023-12-20T09:42:05;9.10;1.00
17178;DHT22;8704;52.006;4.374;2023-12-20T09:44:34;9.00;1.00
17178;DHT22;8704;52.006;4.374;2023-12-20T09:47:04;9.00;1.00
17178;DHT22;8704;52.006;4.374;2023-12-20T09:49:33;8.90;1.00
17178;DHT22;8704;52.006;4.374;2023-12-20T09:52:05;9.00;1.00
17178;DHT22;8704;52.006;4.374;2023-12-20T09:54:35;9.00;1.00
17178;DHT22;8704;52.006;4.374;2023-12-20T09:57:04;9.00;99.90
17178;DHT22;8704;52.006;4.374;2023-12-20T09:59:32;9.00;99.90
17178;DHT22;8704;52.006;4.374;2023-12-20T10:02:01;9.00;99.90
17178;DHT22;8704;52.006;4.374;2023-12-20T10:04:32;9.00;99.90
17178;DHT22;8704;52.006;4.374;2023-12-20T10:07:03;9.00;99.90
17178;DHT22;8704;52.006;4.374;2023-12-20T10:09:34;9.10;99.90
17178;DHT22;8704;52.006;4.374;2023-12-20T10:12:02;9.20;99.90
17178;DHT22;8704;52.006;4.374;2023-12-20T10:14:32;9.20;99.90
17178;DHT22;8704;52.006;4.374;2023-12-20T10:17:04;9.30;99.90
17178;DHT22;8704;52.006;4.374;2023-12-20T10:19:33;9.30;99.90
17178;DHT22;8704;52.006;4.374;2023-12-20T10:22:04;9.30;99.90
17178;DHT22;8704;52.006;4.374;2023-12-20T10:24:32;9.40;99.90
17178;DHT22;8704;52.006;4.374;2023-12-20T10:27:04;9.60;99.90
17178;DHT22;8704;52.006;4.374;2023-12-20T10:29:33;9.40;99.90
17178;DHT22;8704;52.006;4.374;2023-12-20T10:32:22;9.40;99.90
17178;DHT22;8704;52.006;4.374;2023-12-20T10:34:52;9.50;99.90
17178;DHT22;8704;52.006;4.374;2023-12-20T10:37:22;9.50;99.90
17178;DHT22;8704;52.006;4.374;2023-12-20T10:39:52;9.50;99.90
17178;DHT22;8704;52.006;4.374;2023-12-20T10:42:26;9.50;99.90
17178;DHT22;8704;52.006;4.374;2023-12-20T10:44:54;9.50;99.90
17178;DHT22;8704;52.006;4.374;2023-12-20T10:47:23;9.50;99.90
17178;DHT22;8704;52.006;4.374;2023-12-20T10:49:53;9.50;99.90
17178;DHT22;8704;52.006;4.374;2023-12-20T10:52:25;9.50;99.90
17178;DHT22;8704;52.006;4.374;2023-12-20T10:54:54;9.60;99.90
17178;DHT22;8704;52.006;4.374;2023-12-20T10:57:23;9.60;99.90
17178;DHT22;8704;52.006;4.374;2023-12-20T10:59:54;9.70;99.90
17178;DHT22;8704;52.006;4.374;2023-12-20T11:02:25;9.70;99.90
17178;DHT22;8704;52.006;4.374;2023-12-20T11:04:59;9.80;99.90
17178;DHT22;8704;52.006;4.374;2023-12-20T11:07:35;9.80;99.90
17178;DHT22;8704;52.006;4.374;2023-12-20T11:10:17;9.80;99.90
17178;DHT22;8704;52.006;4.374;2023-12-20T11:12:51;9.80;99.90
17178;DHT22;8704;52.006;4.374;2023-12-20T11:15:20;9.80;99.90
17178;DHT22;8704;52.006;4.374;2023-12-20T11:17:54;9.90;99.90
17178;DHT22;8704;52.006;4.374;2023-12-20T11:20:24;9.90;99.90
17178;DHT22;8704;52.006;4.374;2023-12-20T11:23:04;9.90;99.90
17178;DHT22;8704;52.006;4.374;2023-12-20T11:25:46;9.90;99.90
17178;DHT22;8704;52.006;4.374;2023-12-20T11:28:15;9.90;99.90
17178;DHT22;8704;52.006;4.374;2023-12-20T11:30:49;9.90;99.90
17178;DHT22;8704;52.006;4.374;2023-12-20T11:33:21;9.80;99.90
17178;DHT22;8704;52.006;4.374;2023-12-20T11:35:56;9.90;99.90
17178;DHT22;8704;52.006;4.374;2023-12-20T11:38:25;9.90;99.90
17178;DHT22;8704;52.006;4.374;2023-12-20T11:40:54;9.90;99.90
17178;DHT22;8704;52.006;4.374;2023-12-20T11:43:34;9.90;99.90
17178;DHT22;8704;52.006;4.374;2023-12-20T11:46:03;9.90;99.90
17178;DHT22;8704;52.006;4.374;2023-12-20T11:48:35;9.90;99.90
17178;DHT22;8704;52.006;4.374;2023-12-20T11:51:09;10.00;99.90
17178;DHT22;8704;52.006;4.374;2023-12-20T11:53:38;10.00;99.90
17178;DHT22;8704;52.006;4.374;2023-12-20T11:56:07;10.00;99.90
17178;DHT22;8704;52.006;4.374;2023-12-20T11:58:36;10.00;99.90
17178;DHT22;8704;52.006;4.374;2023-12-20T12:01:05;10.00;99.90
17178;DHT22;8704;52.006;4.374;2023-12-20T12:03:35;10.00;99.90
17178;DHT22;8704;52.006;4.374;2023-12-20T12:06:04;10.00;99.90
17178;DHT22;8704;52.006;4.374;2023-12-20T12:08:32;10.00;99.90
17178;DHT22;8704;52.006;4.374;2023-12-20T12:11:02;10.10;99.90
17178;DHT22;8704;52.006;4.374;2023-12-20T12:13:30;10.10;99.90
17178;DHT22;8704;52.006;4.374;2023-12-20T12:15:59;10.10;99.90
17178;DHT22;8704;52.006;4.374;2023-12-20T12:18:27;10.10;99.90
17178;DHT22;8704;52.006;4.374;2023-12-20T12:21:00;10.10;99.90
17178;DHT22;8704;52.006;4.374;2023-12-20T12:23:36;10.10;99.90
17178;DHT22;8704;52.006;4.374;2023-12-20T12:26:06;10.10;99.90
17178;DHT22;8704;52.006;4.374;2023-12-20T12:28:35;10.10;99.90
17178;DHT22;8704;52.006;4.374;2023-12-20T12:31:04;10.10;99.90
17178;DHT22;8704;52.006;4.374;2023-12-20T12:33:32;10.30;99.90
17178;DHT22;8704;52.006;4.374;2023-12-20T12:36:00;10.10;87.90
17178;DHT22;8704;52.006;4.374;2023-12-20T12:38:30;10.10;83.80
17178;DHT22;8704;52.006;4.374;2023-12-20T12:41:00;10.10;87.70
17178;DHT22;8704;52.006;4.374;2023-12-20T12:43:29;10.10;94.70
17178;DHT22;8704;52.006;4.374;2023-12-20T12:46:00;10.30;99.90
17178;DHT22;8704;52.006;4.374;2023-12-20T12:48:28;10.60;98.40
17178;DHT22;8704;52.006;4.374;2023-12-20T12:50:57;10.30;99.90
17178;DHT22;8704;52.006;4.374;2023-12-20T12:53:26;10.20;99.90
17178;DHT22;8704;52.006;4.374;2023-12-20T12:55:54;10.10;99.90
17178;DHT22;8704;52.006;4.374;2023-12-20T12:58:22;10.00;99.90
17178;DHT22;8704;52.006;4.374;2023-12-20T13:00:53;10.00;99.90
17178;DHT22;8704;52.006;4.374;2023-12-20T13:03:22;10.10;99.90
17178;DHT22;8704;52.006;4.374;2023-12-20T13:05:51;10.00;99.90
17178;DHT22;8704;52.006;4.374;2023-12-20T13:08:19;10.00;99.90
17178;DHT22;8704;52.006;4.374;2023-12-20T13:10:47;10.00;99.90
17178;DHT22;8704;52.006;4.374;2023-12-20T13:13:15;10.20;99.90
17178;DHT22;8704;52.006;4.374;2023-12-20T13:15:43;10.00;99.90
17178;DHT22;8704;52.006;4.374;2023-12-20T13:18:18;10.00;99.90
17178;DHT22;8704;52.006;4.374;2023-12-20T13:20:47;10.30;99.90
17178;DHT22;8704;52.006;4.374;2023-12-20T13:23:15;9.90;99.90
17178;DHT22;8704;52.006;4.374;2023-12-20T13:25:45;9.90;99.90
17178;DHT22;8704;52.006;4.374;2023-12-20T13:28:13;9.90;99.90
17178;DHT22;8704;52.006;4.374;2023-12-20T13:30:41;10.50;99.90
17178;DHT22;8704;52.006;4.374;2023-12-20T13:33:11;9.90;99.90
17178;DHT22;8704;52.006;4.374;2023-12-20T13:35:40;9.90;99.90
17178;DHT22;8704;52.006;4.374;2023-12-20T13:38:09;9.90;99.90
17178;DHT22;8704;52.006;4.374;2023-12-20T13:40:37;9.90;99.90
17178;DHT22;8704;52.006;4.374;2023-12-20T13:43:05;9.80;99.90
17178;DHT22;8704;52.006;4.374;2023-12-20T13:45:33;9.80;99.90
17178;DHT22;8704;52.006;4.374;2023-12-20T13:48:02;9.80;99.90
17178;DHT22;8704;52.006;4.374;2023-12-20T13:50:30;9.80;99.90
17178;DHT22;8704;52.006;4.374;2023-12-20T13:53:00;10.40;99.90
17178;DHT22;8704;52.006;4.374;2023-12-20T13:55:30;9.80;99.90
17178;DHT22;8704;52.006;4.374;2023-12-20T13:57:59;9.80;99.90
17178;DHT22;8704;52.006;4.374;2023-12-20T14:00:27;9.80;99.90
17178;DHT22;8704;52.006;4.374;2023-12-20T14:02:55;9.80;99.90
17178;DHT22;8704;52.006;4.374;2023-12-20T14:05:23;9.80;99.90
17178;DHT22;8704;52.006;4.374;2023-12-20T14:07:55;9.80;99.90
17178;DHT22;8704;52.006;4.374;2023-12-20T14:10:26;9.70;99.90
17178;DHT22;8704;52.006;4.374;2023-12-20T14:12:54;9.80;99.90
17178;DHT22;8704;52.006;4.374;2023-12-20T14:15:23;9.90;99.90
17178;DHT22;8704;52.006;4.374;2023-12-20T14:17:52;9.70;99.90
17178;DHT22;8704;52.006;4.374;2023-12-20T14:20:21;9.70;99.90
17178;DHT22;8704;52.006;4.374;2023-12-20T14:22:50;9.70;99.90
17178;DHT22;8704;52.006;4.374;2023-12-20T14:25:18;9.70;99.90
17178;DHT22;8704;52.006;4.374;2023-12-20T14:27:47;9.80;99.90
17178;DHT22;8704;52.006;4.374;2023-12-20T14:30:16;9.70;99.90
17178;DHT22;8704;52.006;4.374;2023-12-20T14:32:44;9.70;99.90
17178;DHT22;8704;52.006;4.374;2023-12-20T14:35:13;9.60;99.90
17178;DHT22;8704;52.006;4.374;2023-12-20T14:37:41;9.70;99.90
17178;DHT22;8704;52.006;4.374;2023-12-20T14:40:11;10.30;99.90
17178;DHT22;8704;52.006;4.374;2023-12-20T14:42:42;9.60;1.00
17178;DHT22;8704;52.006;4.374;2023-12-20T14:45:12;9.60;99.90
17178;DHT22;8704;52.006;4.374;2023-12-20T14:47:41;9.60;1.00
17178;DHT22;8704;52.006;4.374;2023-12-20T14:50:09;9.60;1.00
17178;DHT22;8704;52.006;4.374;2023-12-20T14:52:38;9.60;1.00
17178;DHT22;8704;52.006;4.374;2023-12-20T14:55:07;9.40;1.00
17178;DHT22;8704;52.006;4.374;2023-12-20T14:57:35;9.60;1.00
17178;DHT22;8704;52.006;4.374;2023-12-20T15:00:04;9.80;1.00
17178;DHT22;8704;52.006;4.374;2023-12-20T15:02:34;9.60;1.00
17178;DHT22;8704;52.006;4.374;2023-12-20T15:05:02;9.60;1.00
17178;DHT22;8704;52.006;4.374;2023-12-20T15:07:30;9.50;1.00
17178;DHT22;8704;52.006;4.374;2023-12-20T15:10:01;9.50;1.00
17178;DHT22;8704;52.006;4.374;2023-12-20T15:12:30;9.50;1.00
17178;DHT22;8704;52.006;4.374;2023-12-20T15:15:00;9.50;1.00
17178;DHT22;8704;52.006;4.374;2023-12-20T15:17:29;9.50;1.00
17178;DHT22;8704;52.006;4.374;2023-12-20T15:19:58;9.40;11.40
17178;DHT22;8704;52.006;4.374;2023-12-20T15:22:27;9.50;37.90
17178;DHT22;8704;52.006;4.374;2023-12-20T15:24:55;9.40;95.40
17178;DHT22;8704;52.006;4.374;2023-12-20T15:27:23;9.40;99.90
17178;DHT22;8704;52.006;4.374;2023-12-20T15:29:51;9.40;99.90
17178;DHT22;8704;52.006;4.374;2023-12-20T15:32:19;10.20;99.90
17178;DHT22;8704;52.006;4.374;2023-12-20T15:34:47;9.40;99.90
17178;DHT22;8704;52.006;4.374;2023-12-20T15:37:17;9.40;99.90
17178;DHT22;8704;52.006;4.374;2023-12-20T15:39:45;9.40;1.00
17178;DHT22;8704;52.006;4.374;2023-12-20T15:42:13;9.30;1.00
17178;DHT22;8704;52.006;4.374;2023-12-20T15:44:41;9.70;1.00
17178;DHT22;8704;52.006;4.374;2023-12-20T15:47:10;9.50;1.00
17178;DHT22;8704;52.006;4.374;2023-12-20T15:49:38;9.40;1.00
17178;DHT22;8704;52.006;4.374;2023-12-20T15:52:06;9.40;1.00
17178;DHT22;8704;52.006;4.374;2023-12-20T15:54:36;9.30;1.00
17178;DHT22;8704;52.006;4.374;2023-12-20T15:57:06;9.30;99.90
17178;DHT22;8704;52.006;4.374;2023-12-20T15:59:34;9.90;1.00
17178;DHT22;8704;52.006;4.374;2023-12-20T16:02:02;9.30;99.90
17178;DHT22;8704;52.006;4.374;2023-12-20T16:04:31;9.20;1.00
17178;DHT22;8704;52.006;4.374;2023-12-20T16:06:59;9.70;67.90
17178;DHT22;8704;52.006;4.374;2023-12-20T16:09:28;9.20;99.90
17178;DHT22;8704;52.006;4.374;2023-12-20T16:11:57;9.20;1.00
17178;DHT22;8704;52.006;4.374;2023-12-20T16:14:26;9.20;1.00
17178;DHT22;8704;52.006;4.374;2023-12-20T16:16:56;9.30;99.90